Time;durP1;ratioP1;P1;durP2;ratioP2;P2;SDS_P1;SDS_P2;PMS_P1;PMS_P2;Temp;Humidity;BMP_temperature;BMP_pressure;BME280_temperature;BME280_humidity;BME280_pressure;Samples;Min_cycle;Max_cycle;Signal;HPM_P1;HPM_P2
2022/06/19 00:00:29;;;;;;;;;16.67;14.00;;;;;30.80;40.43;100148.94;5030970;28;45075;-75
2022/06/19 00:02:54;;;;;;;;;17.33;16.00;;;;;30.58;40.79;100140.38;5032532;28;45100;-73
2022/06/19 00:05:19;;;;;;;;;17.00;12.00;;;;;30.41;41.45;100141.47;5032317;28;45029;-74
2022/06/19 00:07:45;;;;;;;;;15.67;13.67;;;;;30.38;42.15;100163.75;5031499;28;45321;-76
2022/06/19 00:10:11;;;;;;;;;15.33;15.00;;;;;30.09;42.62;100130.66;5030227;28;45142;-75
2022/06/19 00:12:37;;;;;;;;;15.67;13.00;;;;;29.71;43.74;100110.06;5032335;28;45061;-74
2022/06/19 00:15:03;;;;;;;;;14.67;14.67;;;;;29.82;43.17;100178.28;5030873;28;45356;-75
2022/06/19 00:17:28;;;;;;;;;13.33;12.00;;;;;29.64;43.85;100205.06;5031598;28;45052;-74
2022/06/19 00:19:54;;;;;;;;;14.00;12.33;;;;;29.39;44.30;100223.09;5028961;28;45296;-72
2022/06/19 00:22:21;;;;;;;;;15.33;10.33;;;;;29.30;44.26;100225.50;5025959;28;44980;-70
2022/06/19 00:24:46;;;;;;;;;17.25;13.00;;;;;29.22;44.18;100246.13;5031163;28;45505;-75
2022/06/19 00:27:12;;;;;;;;;6.33;5.33;;;;;29.18;44.86;100225.25;5031464;28;45024;-73
2022/06/19 00:29:37;;;;;;;;;12.33;12.33;;;;;29.12;44.49;100219.19;5031181;28;45341;-74
2022/06/19 00:32:06;;;;;;;;;11.67;11.67;;;;;28.80;43.96;100211.88;5031150;28;45196;-74
2022/06/19 00:34:32;;;;;;;;;9.33;9.33;;;;;28.60;43.99;100217.66;5031634;28;46835;-73
2022/06/19 00:37:00;;;;;;;;;11.33;9.00;;;;;28.63;44.17;100225.72;5031228;28;45033;-77
2022/06/19 00:39:26;;;;;;;;;15.67;12.67;;;;;28.17;44.09;100170.59;5032078;28;45215;-75
2022/06/19 00:41:52;;;;;;;;;14.00;10.00;;;;;28.20;43.75;100195.16;5034380;28;44990;-75
2022/06/19 00:44:17;;;;;;;;;9.33;8.00;;;;;27.97;43.18;100186.31;5030718;28;45048;-77
2022/06/19 00:46:54;;;;;;;;;14.00;8.00;;;;;28.08;43.35;100225.06;5032589;28;45056;-75
2022/06/19 00:49:28;;;;;;;;;8.67;7.33;;;;;27.93;43.32;100212.16;5030604;28;45226;-75
2022/06/19 00:52:00;;;;;;;;;8.00;8.00;;;;;27.79;42.41;100214.75;5031566;28;45178;-75
2022/06/19 00:54:26;;;;;;;;;9.33;7.67;;;;;27.61;42.50;100201.03;5025199;28;44935;-77
2022/06/19 00:56:51;;;;;;;;;7.67;6.67;;;;;27.62;42.19;100259.53;5024527;28;45020;-77
2022/06/19 00:59:18;;;;;;;;;8.67;6.67;;;;;27.47;42.04;100262.13;5028961;28;45094;-76
2022/06/19 01:01:44;;;;;;;;;8.67;5.33;;;;;27.17;41.99;100242.59;5026307;28;45250;-75
2022/06/19 01:04:21;;;;;;;;;12.00;7.67;;;;;27.19;42.28;100266.25;5030904;28;45706;-75
2022/06/19 01:06:48;;;;;;;;;10.33;8.00;;;;;27.02;42.20;100285.41;5026512;28;45002;-74
2022/06/19 01:09:15;;;;;;;;;13.00;8.33;;;;;26.34;42.78;100233.81;5046927;28;45029;-77
2022/06/19 01:11:40;;;;;;;;;7.33;7.00;;;;;26.29;43.26;100294.28;5024606;28;46077;-75
2022/06/19 01:14:09;;;;;;;;;8.67;8.67;;;;;26.02;43.26;100284.59;5030464;28;45105;-77
2022/06/19 01:16:36;;;;;;;;;13.67;8.33;;;;;25.80;43.66;100255.41;5030523;28;45185;-74
2022/06/19 01:19:03;;;;;;;;;11.00;8.67;;;;;25.67;44.04;100273.34;5030667;28;45170;-73
2022/06/19 01:21:32;;;;;;;;;11.33;9.67;;;;;25.60;44.19;100291.00;5031056;28;45177;-73
2022/06/19 01:24:08;;;;;;;;;10.00;10.00;;;;;25.33;44.38;100258.41;5029303;28;45148;-70
2022/06/19 01:26:40;;;;;;;;;7.00;7.00;;;;;25.13;44.51;100242.81;5029538;28;45190;-71
2022/06/19 01:29:07;;;;;;;;;13.67;10.33;;;;;25.24;44.84;100254.16;5031552;28;45032;-74
2022/06/19 01:31:37;;;;;;;;;12.00;10.67;;;;;25.01;44.99;100227.81;5030224;28;45108;-70
2022/06/19 01:34:26;;;;;;;;;9.00;9.00;;;;;25.17;44.17;100283.59;5026059;28;46563;-74
2022/06/19 01:37:04;;;;;;;;;15.67;13.00;;;;;25.04;44.35;100278.72;5031593;28;45182;-74
2022/06/19 01:39:34;;;;;;;;;11.00;9.33;;;;;24.96;44.26;100281.75;5031307;28;44937;-76
2022/06/19 01:42:02;;;;;;;;;15.33;13.00;;;;;24.97;44.37;100289.91;5031546;28;45351;-76
2022/06/19 01:44:28;;;;;;;;;16.67;12.00;;;;;24.80;44.18;100281.53;5029596;28;46004;-74
2022/06/19 01:46:53;;;;;;;;;8.00;7.33;;;;;24.70;44.72;100296.47;5030161;28;45211;-75
2022/06/19 01:49:19;;;;;;;;;14.00;9.33;;;;;24.69;44.58;100281.06;5030487;28;45209;-75
2022/06/19 01:51:44;;;;;;;;;15.00;11.00;;;;;24.75;44.73;100281.69;5029574;28;45234;-76
2022/06/19 01:54:21;;;;;;;;;18.33;13.00;;;;;24.54;44.38;100252.47;5029009;28;45154;-76
2022/06/19 01:56:51;;;;;;;;;13.67;13.67;;;;;24.60;44.13;100253.16;5033651;28;45148;-76
2022/06/19 01:59:17;;;;;;;;;14.33;11.00;;;;;24.49;43.99;100244.44;5033630;28;45153;-71
2022/06/19 02:01:43;;;;;;;;;14.00;12.00;;;;;24.44;44.28;100230.09;5033578;28;45123;-74
2022/06/19 02:04:09;;;;;;;;;10.33;10.33;;;;;24.38;44.43;100253.03;5034276;28;45669;-73
2022/06/19 02:06:41;;;;;;;;;11.33;11.00;;;;;24.27;44.35;100258.06;5034328;28;44970;-75
2022/06/19 02:09:08;;;;;;;;;12.33;10.00;;;;;24.01;44.91;100261.78;5034094;28;45022;-71
2022/06/19 02:11:35;;;;;;;;;10.33;9.00;;;;;24.07;45.20;100313.38;5034456;28;44949;-71
2022/06/19 02:14:04;;;;;;;;;9.00;9.00;;;;;24.00;45.32;100306.38;5034114;28;45729;-75
2022/06/19 02:16:30;;;;;;;;;11.67;7.67;;;;;23.78;44.95;100303.50;5034573;28;45198;-75
2022/06/19 02:18:55;;;;;;;;;9.00;6.67;;;;;24.01;44.98;100346.38;5034195;28;45032;-73
2022/06/19 02:21:43;;;;;;;;;12.33;8.00;;;;;24.00;45.20;100350.03;5033782;28;44947;-73
2022/06/19 02:24:12;;;;;;;;;12.33;9.00;;;;;24.05;44.80;100346.16;5028958;28;46084;-74
2022/06/19 02:26:40;;;;;;;;;12.67;10.67;;;;;23.96;45.15;100343.78;5033693;28;45013;-73
2022/06/19 02:29:09;;;;;;;;;8.67;7.00;;;;;23.95;44.97;100349.31;5034145;28;45118;-73
2022/06/19 02:31:36;;;;;;;;;15.00;8.67;;;;;23.84;45.20;100358.75;5033956;28;45156;-72
2022/06/19 02:34:12;;;;;;;;;9.00;7.00;;;;;23.83;45.40;100348.78;5033491;28;46788;-73
2022/06/19 02:36:49;;;;;;;;;6.00;6.00;;;;;23.88;45.44;100348.63;5033681;28;45278;-73
2022/06/19 02:39:27;;;;;;;;;10.33;8.00;;;;;23.77;46.10;100367.16;5033750;28;45140;-73
2022/06/19 02:42:17;;;;;;;;;7.00;7.00;;;;;23.71;46.04;100362.84;5030404;28;45238;-70
2022/06/19 02:44:44;;;;;;;;;8.33;7.33;;;;;23.76;45.56;100358.09;5028475;28;45278;-73
2022/06/19 02:47:10;;;;;;;;;7.00;6.00;;;;;23.51;46.03;100314.38;5032427;28;45156;-73
2022/06/19 02:49:36;;;;;;;;;11.00;7.67;;;;;23.66;45.69;100352.06;5033598;28;45235;-73
2022/06/19 02:52:04;;;;;;;;;13.00;8.00;;;;;23.81;45.90;100481.59;5032988;28;45180;-75
2022/06/19 02:54:30;;;;;;;;;7.33;6.00;;;;;23.43;46.68;100644.59;5033228;28;46629;-73
2022/06/19 02:56:55;;;;;;;;;9.67;7.00;;;;;23.04;47.46;100529.38;5032566;28;44941;-74
2022/06/19 02:59:21;;;;;;;;;12.67;8.67;;;;;23.13;47.85;100483.72;5029228;28;45587;-75
2022/06/19 03:01:47;;;;;;;;;10.00;9.33;;;;;23.07;47.26;100527.50;5031057;28;45089;-73
2022/06/19 03:04:25;;;;;;;;;10.67;6.67;;;;;23.26;47.14;100562.38;5033079;28;45892;-73
2022/06/19 03:06:52;;;;;;;;;17.00;10.67;;;;;23.28;47.07;100560.50;5026558;28;45136;-74
2022/06/19 03:09:18;;;;;;;;;10.67;6.67;;;;;23.17;47.20;100561.72;5033337;28;45094;-74
2022/06/19 03:11:43;;;;;;;;;8.33;8.33;;;;;22.93;47.62;100514.25;5033179;28;45075;-74
2022/06/19 03:14:09;;;;;;;;;12.33;9.00;;;;;22.94;47.36;100477.88;5032601;28;45573;-73
2022/06/19 03:16:34;;;;;;;;;11.67;10.00;;;;;22.85;47.06;100483.59;5030965;28;45162;-74
2022/06/19 03:19:00;;;;;;;;;10.00;9.00;;;;;23.31;46.70;100489.53;5033071;28;45249;-76
2022/06/19 03:21:26;;;;;;;;;8.67;6.00;;;;;23.35;46.42;100507.59;5032751;28;44980;-72
2022/06/19 03:23:51;;;;;;;;;8.00;7.67;;;;;23.31;46.72;100470.44;5032394;28;45410;-75
2022/06/19 03:26:16;;;;;;;;;10.67;7.67;;;;;23.31;46.81;100542.25;5032342;28;45080;-74
2022/06/19 03:28:42;;;;;;;;;14.00;8.33;;;;;23.24;46.90;100547.91;5033281;28;45582;-75
2022/06/19 03:31:10;;;;;;;;;9.00;7.67;;;;;23.16;46.99;100513.59;5031624;28;45300;-72
2022/06/19 03:33:36;;;;;;;;;11.67;8.67;;;;;22.81;47.24;100466.44;5032167;28;45563;-74
2022/06/19 03:36:02;;;;;;;;;12.67;8.33;;;;;22.80;47.48;100489.19;5032487;28;45428;-69
2022/06/19 03:38:27;;;;;;;;;15.00;9.33;;;;;22.84;47.44;100508.16;5032769;28;44899;-72
2022/06/19 03:40:52;;;;;;;;;9.67;8.00;;;;;22.74;47.28;100481.16;5031546;28;45202;-74
2022/06/19 03:43:18;;;;;;;;;19.00;10.67;;;;;22.93;47.04;100511.53;5032765;28;45471;-72
2022/06/19 03:45:43;;;;;;;;;10.67;8.00;;;;;22.99;46.78;100511.31;5032688;28;45553;-75
2022/06/19 03:48:11;;;;;;;;;9.33;9.00;;;;;23.01;46.58;100524.91;5033320;28;44969;-75
2022/06/19 03:50:37;;;;;;;;;15.67;9.67;;;;;22.89;46.59;100522.53;5033020;28;45205;-72
2022/06/19 03:53:03;;;;;;;;;11.00;9.67;;;;;22.80;46.60;100526.38;5031055;28;46201;-69
2022/06/19 03:55:28;;;;;;;;;11.00;11.00;;;;;22.85;46.60;100499.94;5032126;28;45193;-75
2022/06/19 03:57:53;;;;;;;;;11.33;11.33;;;;;22.95;46.67;100474.22;5031822;28;45043;-75
2022/06/19 04:00:19;;;;;;;;;12.00;11.00;;;;;22.90;46.52;100478.91;5032223;28;45083;-73
2022/06/19 04:02:44;;;;;;;;;15.33;11.67;;;;;22.92;46.57;100492.50;5031169;28;46858;-73
2022/06/19 04:05:13;;;;;;;;;12.33;7.67;;;;;22.57;46.48;100424.47;5031165;28;45101;-71
2022/06/19 04:07:47;;;;;;;;;14.00;10.00;;;;;22.72;46.27;100501.19;5031995;28;45050;-74
2022/06/19 04:10:14;;;;;;;;;11.00;8.67;;;;;22.98;46.19;100602.19;5032136;28;45025;-75
2022/06/19 04:12:40;;;;;;;;;13.50;8.75;;;;;22.84;46.51;100657.97;5032032;28;45725;-74
2022/06/19 04:15:05;;;;;;;;;13.67;11.00;;;;;22.61;47.12;100690.28;5032179;28;45049;-74
2022/06/19 04:17:31;;;;;;;;;12.33;8.00;;;;;22.14;46.89;100454.63;5028757;28;45188;-73
2022/06/19 04:19:56;;;;;;;;;10.67;10.67;;;;;22.48;47.82;100378.44;5030355;28;45233;-75
2022/06/19 04:22:22;;;;;;;;;9.33;8.00;;;;;22.58;48.90;100365.44;5031675;28;45275;-73
2022/06/19 04:24:48;;;;;;;;;12.00;10.67;;;;;22.61;49.14;100368.09;5032189;28;45286;-74
2022/06/19 04:27:14;;;;;;;;;13.67;11.00;;;;;22.66;49.57;100425.13;5032542;28;45106;-76
2022/06/19 04:29:39;;;;;;;;;12.25;10.50;;;;;22.53;49.32;100424.59;5032115;28;45209;-71
2022/06/19 04:32:05;;;;;;;;;9.00;9.00;;;;;22.53;49.26;100428.19;5031741;28;45475;-71
2022/06/19 04:34:30;;;;;;;;;13.67;10.67;;;;;22.23;50.79;100381.81;5030481;28;45091;-75
2022/06/19 04:36:56;;;;;;;;;13.33;10.33;;;;;22.18;50.23;100389.22;5031949;28;45117;-76
2022/06/19 04:39:21;;;;;;;;;9.67;9.00;;;;;22.02;50.02;100385.13;5030980;28;45086;-77
2022/06/19 04:41:47;;;;;;;;;13.67;10.67;;;;;21.99;51.12;100437.81;5030183;28;47297;-76
2022/06/19 04:44:15;;;;;;;;;12.33;9.33;;;;;21.93;51.87;100465.16;5031416;28;45106;-72
2022/06/19 04:46:42;;;;;;;;;11.00;8.00;;;;;22.04;51.28;100449.47;5031397;28;45102;-73
2022/06/19 04:49:08;;;;;;;;;12.00;10.25;;;;;22.05;51.79;100507.47;5030940;28;45167;-72
2022/06/19 04:51:33;;;;;;;;;7.00;7.00;;;;;22.05;53.11;100445.78;5029386;28;46056;-76
2022/06/19 04:53:59;;;;;;;;;10.00;9.00;;;;;22.04;51.08;100402.28;5029657;28;45227;-76
2022/06/19 04:56:24;;;;;;;;;11.67;5.67;;;;;22.09;51.67;100444.78;5031902;28;45237;-74
2022/06/19 04:58:51;;;;;;;;;7.67;6.33;;;;;22.05;50.99;100421.28;5030855;28;45205;-74
2022/06/19 05:01:17;;;;;;;;;10.00;7.33;;;;;22.08;51.74;100404.91;5029702;28;45589;-72
2022/06/19 05:03:42;;;;;;;;;9.00;6.00;;;;;22.00;50.97;100398.75;5031532;28;44918;-74
2022/06/19 05:06:08;;;;;;;;;12.67;6.67;;;;;22.06;50.50;100482.06;5030777;28;45195;-73
2022/06/19 05:08:33;;;;;;;;;7.00;6.33;;;;;21.65;51.70;100402.41;5029456;28;45117;-77
2022/06/19 05:10:58;;;;;;;;;8.33;4.33;;;;;21.84;51.29;100435.44;5032189;28;45173;-73
2022/06/19 05:13:25;;;;;;;;;7.00;7.00;;;;;22.02;51.52;100462.19;5032511;28;45151;-75
2022/06/19 05:16:11;;;;;;;;;6.00;5.00;;;;;22.17;50.86;100517.16;5025830;28;45222;-76
2022/06/19 05:18:37;;;;;;;;;12.00;6.00;;;;;22.02;50.63;100505.69;5027576;28;45042;-76
2022/06/19 05:21:04;;;;;;;;;4.00;4.00;;;;;22.14;50.59;100443.75;5031264;28;45014;-76
2022/06/19 05:23:31;;;;;;;;;7.67;7.67;;;;;22.00;52.85;100365.25;5031474;28;44993;-74
2022/06/19 05:26:04;;;;;;;;;5.67;5.67;;;;;22.13;52.96;100363.97;5031092;28;45049;-74
2022/06/19 05:28:31;;;;;;;;;6.67;5.33;;;;;22.09;51.61;100354.09;5031544;28;45032;-73
2022/06/19 05:30:58;;;;;;;;;12.33;4.67;;;;;22.21;52.75;100342.88;5033965;28;45182;-76
2022/06/19 05:33:24;;;;;;;;;5.67;4.67;;;;;22.18;51.82;100257.72;5034771;28;45111;-76
2022/06/19 05:35:50;;;;;;;;;7.33;5.00;;;;;22.00;51.57;100218.34;5034690;28;44891;-75
2022/06/19 05:38:15;;;;;;;;;5.67;5.00;;;;;21.94;51.51;100286.50;5034710;28;45159;-73
2022/06/19 05:40:41;;;;;;;;;8.67;7.00;;;;;21.89;51.99;100319.28;5034445;28;45190;-76
2022/06/19 05:43:08;;;;;;;;;3.67;3.67;;;;;21.31;51.90;100270.03;5034399;28;45551;-74
2022/06/19 05:45:33;;;;;;;;;26.25;21.75;;;;;21.67;52.22;100406.84;5034614;28;45113;-75
2022/06/19 05:47:59;;;;;;;;;66.25;51.00;;;;;21.59;51.83;100427.91;5034247;28;45121;-74
2022/06/19 05:50:24;;;;;;;;;15.25;12.50;;;;;21.68;51.58;100418.66;5033843;28;45335;-74
2022/06/19 05:52:49;;;;;;;;;7.33;7.33;;;;;21.74;52.63;100404.88;5034087;28;45016;-76
2022/06/19 05:55:15;;;;;;;;;7.33;5.67;;;;;21.66;52.28;100356.16;5034346;28;45286;-77
2022/06/19 05:57:40;;;;;;;;;6.67;2.33;;;;;21.88;51.72;100369.19;5034715;28;45120;-74
2022/06/19 06:00:08;;;;;;;;;8.00;5.67;;;;;21.95;50.93;100330.00;5032724;28;48890;-74
2022/06/19 06:02:35;;;;;;;;;10.67;7.00;;;;;21.98;50.79;100301.84;5033143;28;45009;-76
2022/06/19 06:05:01;;;;;;;;;17.00;11.67;;;;;21.98;51.25;100248.31;5033081;28;45205;-76
2022/06/19 06:07:26;;;;;;;;;13.67;10.33;;;;;22.05;50.28;100255.34;5034184;28;45081;-75
2022/06/19 06:09:51;;;;;;;;;8.00;6.00;;;;;21.94;50.85;100237.56;5033463;28;45725;-74
2022/06/19 06:12:17;;;;;;;;;8.67;6.00;;;;;22.12;50.48;100256.06;5034021;28;45168;-75
2022/06/19 06:14:42;;;;;;;;;3.67;3.00;;;;;22.14;49.63;100231.53;5033692;28;46151;-74
2022/06/19 06:17:08;;;;;;;;;14.33;11.33;;;;;22.03;50.75;100205.53;5031941;28;45116;-74
2022/06/19 06:19:34;;;;;;;;;40.00;34.25;;;;;21.96;50.37;100214.81;5030335;28;45514;-76
2022/06/19 06:22:02;;;;;;;;;28.00;19.75;;;;;21.97;49.94;100327.22;5044486;28;45092;-72
2022/06/19 06:24:27;;;;;;;;;8.67;6.33;;;;;21.90;49.40;100367.31;5027052;28;45230;-68
2022/06/19 06:26:53;;;;;;;;;3.33;3.33;;;;;21.81;48.94;100381.13;5030637;28;45092;-70
2022/06/19 06:29:20;;;;;;;;;7.00;6.00;;;;;21.73;49.59;100419.44;5032656;28;46033;-74
2022/06/19 06:31:46;;;;;;;;;8.00;6.67;;;;;21.82;49.69;100498.03;5030780;28;45194;-81
2022/06/19 06:34:11;;;;;;;;;6.00;4.33;;;;;21.55;50.50;100420.78;5047954;28;45212;-76
2022/06/19 06:36:37;;;;;;;;;4.00;3.33;;;;;21.28;51.30;100338.94;5029404;28;45232;-82
2022/06/19 06:39:02;;;;;;;;;4.67;3.33;;;;;21.26;51.81;100468.50;5034948;28;45248;-79
2022/06/19 06:41:28;;;;;;;;;8.00;6.67;;;;;21.35;51.91;100500.91;5034641;28;45027;-79
2022/06/19 06:43:54;;;;;;;;;13.33;8.67;;;;;21.28;52.06;100444.00;5035548;28;45292;-77
2022/06/19 06:46:25;;;;;;;;;5.00;4.00;;;;;21.24;51.96;100432.31;5035137;28;45139;-76
2022/06/19 06:48:52;;;;;;;;;6.33;5.00;;;;;21.07;52.91;100391.97;5027238;28;46277;-76
2022/06/19 06:51:22;;;;;;;;;6.67;4.33;;;;;21.28;52.99;100460.31;5030983;28;45246;-65
2022/06/19 06:53:47;;;;;;;;;4.00;4.00;;;;;21.32;52.56;100391.38;5031405;28;44942;-65
2022/06/19 06:56:13;;;;;;;;;7.00;4.67;;;;;21.20;53.56;100340.97;5024313;28;46407;-66
2022/06/19 06:58:39;;;;;;;;;1.00;1.00;;;;;21.27;53.69;100326.28;5024704;28;46352;-66
2022/06/19 07:01:20;;;;;;;;;9.00;4.67;;;;;21.09;53.71;100245.25;5025582;28;45084;-64
2022/06/19 07:03:47;;;;;;;;;6.00;5.00;;;;;20.94;54.74;100213.94;5025838;28;45322;-64
2022/06/19 07:06:13;;;;;;;;;7.33;3.00;;;;;21.17;53.55;100283.97;5027903;28;45017;-72
2022/06/19 07:08:39;;;;;;;;;8.00;7.33;;;;;21.12;55.13;100305.81;5022534;28;45806;-71
2022/06/19 07:11:05;;;;;;;;;6.00;3.67;;;;;21.10;52.76;100321.25;5011246;28;45430;-71
2022/06/19 07:13:30;;;;;;;;;3.33;3.00;;;;;21.16;53.31;100350.97;5011609;28;45475;-72
2022/06/19 07:15:55;;;;;;;;;5.33;4.67;;;;;21.08;53.62;100388.28;5018962;28;45532;-72
2022/06/19 07:18:21;;;;;;;;;4.00;3.00;;;;;21.27;52.48;100447.66;5021523;28;45505;-71
2022/06/19 07:20:47;;;;;;;;;7.00;5.33;;;;;21.37;53.06;100451.97;5016618;28;46681;-71
2022/06/19 07:23:12;;;;;;;;;8.67;2.33;;;;;21.38;52.28;100437.41;5020281;28;45195;-70
2022/06/19 07:25:37;;;;;;;;;3.67;3.67;;;;;21.47;51.57;100477.09;5025487;28;45228;-72
2022/06/19 07:28:04;;;;;;;;;4.67;3.00;;;;;21.37;51.54;100460.09;5023688;28;45263;-72
2022/06/19 07:30:29;;;;;;;;;3.00;3.00;;;;;21.26;51.24;100454.03;5016359;28;45885;-71
2022/06/19 07:32:56;;;;;;;;;2.33;2.00;;;;;21.38;52.10;100469.16;5032431;28;45171;-72
2022/06/19 07:35:23;;;;;;;;;3.00;3.00;;;;;21.05;50.99;100488.91;5029921;28;45415;-72
2022/06/19 07:37:49;;;;;;;;;3.33;3.33;;;;;21.22;51.98;100656.06;5016248;28;45840;-73
2022/06/19 07:40:17;;;;;;;;;4.33;4.33;;;;;21.01;52.85;100624.78;5024556;28;45029;-71
2022/06/19 07:42:43;;;;;;;;;5.33;3.33;;;;;21.01;52.71;100584.94;5015322;28;45478;-72
2022/06/19 07:45:09;;;;;;;;;5.67;3.67;;;;;21.05;53.11;100574.91;5015076;28;45394;-72
2022/06/19 07:50:20;;;;;;;;;7.33;4.00;;;;;21.06;52.08;100564.00;5014321;28;45344;-72
2022/06/19 07:52:48;;;;;;;;;3.67;2.67;;;;;21.13;52.60;100559.34;5022140;28;45469;-72
2022/06/19 07:55:23;;;;;;;;;4.00;3.00;;;;;21.18;52.29;100538.41;5014161;28;45810;-72
2022/06/19 07:57:49;;;;;;;;;4.67;4.00;;;;;21.15;51.89;100511.28;5019684;28;46231;-74
2022/06/19 08:00:22;;;;;;;;;13.00;6.00;;;;;21.46;52.36;100557.72;5024968;28;45000;-72
2022/06/19 08:02:49;;;;;;;;;10.33;5.00;;;;;21.49;51.33;100650.13;5025258;28;45465;-73
2022/06/19 08:05:24;;;;;;;;;4.33;3.00;;;;;21.31;51.55;100751.91;5027396;28;45200;-73
2022/06/19 08:07:52;;;;;;;;;10.67;6.33;;;;;21.16;52.01;100696.00;5026657;28;46641;-72
2022/06/19 08:10:24;;;;;;;;;11.67;6.00;;;;;20.97;52.05;100567.81;5027597;28;45013;-71
2022/06/19 08:12:51;;;;;;;;;6.67;5.00;;;;;21.28;53.23;100620.63;5023366;28;45413;-72
2022/06/19 08:15:17;;;;;;;;;3.67;3.67;;;;;20.92;52.52;100509.06;5022686;28;45593;-71
2022/06/19 08:17:42;;;;;;;;;5.00;4.00;;;;;21.53;51.45;100572.13;5016449;28;46433;-73
2022/06/19 08:20:09;;;;;;;;;7.67;4.00;;;;;21.68;51.00;100538.28;5029051;28;45105;-72
2022/06/19 08:22:34;;;;;;;;;5.00;4.00;;;;;21.59;50.98;100479.56;5029570;28;45071;-72
2022/06/19 08:24:59;;;;;;;;;5.33;5.00;;;;;21.88;50.62;100506.06;5019197;28;45346;-73
2022/06/19 08:27:25;;;;;;;;;9.00;5.67;;;;;22.00;50.26;100493.09;5017910;28;51351;-72
2022/06/19 08:29:50;;;;;;;;;5.00;4.67;;;;;21.77;49.73;100477.34;5017428;28;45518;-72
2022/06/19 08:32:15;;;;;;;;;5.00;4.33;;;;;21.87;49.79;100496.09;5027541;28;45749;-73
2022/06/19 08:34:41;;;;;;;;;4.67;4.33;;;;;22.01;49.75;100503.94;5028622;28;45188;-73
2022/06/19 08:37:10;;;;;;;;;5.00;4.00;;;;;21.91;49.63;100461.59;5026381;28;57361;-72
2022/06/19 08:39:36;;;;;;;;;6.00;6.00;;;;;22.00;49.52;100447.72;5027388;28;45035;-73
2022/06/19 08:42:16;;;;;;;;;7.33;5.67;;;;;22.18;49.86;100448.19;5028501;28;45007;-73
2022/06/19 08:45:03;;;;;;;;;3.67;3.67;;;;;22.31;49.28;100435.19;5029297;28;45201;-73
2022/06/19 08:48:16;;;;;;;;;6.33;4.67;;;;;22.21;48.89;100402.75;5012246;28;45484;-72
2022/06/19 08:50:50;;;;;;;;;9.00;5.00;;;;;22.33;48.89;100433.31;5011170;28;45400;-72
2022/06/19 08:53:31;;;;;;;;;6.67;5.67;;;;;22.33;49.11;100408.81;5012156;28;45490;-71
2022/06/19 08:56:16;;;;;;;;;8.00;6.33;;;;;22.17;48.77;100379.25;5011101;28;45473;-72
2022/06/19 08:58:44;;;;;;;;;10.67;4.00;;;;;22.26;49.40;100430.72;5028669;28;45615;-71
2022/06/19 09:01:34;;;;;;;;;5.67;5.67;;;;;22.24;49.17;100450.72;5026379;28;45343;-67
2022/06/19 09:07:53;;;;;;;;;8.00;7.00;;;;;22.22;49.15;100439.00;5030104;28;45387;-69
2022/06/19 09:10:37;;;;;;;;;7.33;7.00;;;;;22.00;50.04;100465.88;5030624;28;45242;-68
2022/06/19 09:13:21;;;;;;;;;5.00;5.00;;;;;21.88;50.54;100472.53;5032612;28;45122;-73
2022/06/19 09:16:01;;;;;;;;;1.00;0.00;;;;;22.14;50.46;100503.63;5029719;28;45048;-73
2022/06/19 09:18:42;;;;;;;;;12.00;9.67;;;;;22.22;49.43;100520.63;5029475;28;45259;-72
2022/06/19 09:21:17;;;;;;;;;13.67;11.33;;;;;22.46;49.55;100549.09;5034413;28;45943;-73
2022/06/19 09:24:00;;;;;;;;;10.67;9.00;;;;;22.58;49.09;100547.88;5032375;28;45187;-72
2022/06/19 09:26:37;;;;;;;;;12.33;7.00;;;;;22.49;49.27;100553.56;5034042;28;45226;-73
2022/06/19 09:29:11;;;;;;;;;6.33;4.67;;;;;22.45;48.91;100537.31;5036707;28;44918;-73
2022/06/19 09:31:53;;;;;;;;;9.00;9.00;;;;;22.69;48.50;100563.94;5029138;28;47508;-73
2022/06/19 09:34:54;;;;;;;;;9.67;8.67;;;;;22.81;48.76;100553.59;5034404;28;45124;-74
2022/06/19 09:37:36;;;;;;;;;10.00;8.33;;;;;22.71;48.38;100546.63;5034206;28;45149;-74
2022/06/19 09:40:16;;;;;;;;;11.00;10.67;;;;;23.09;47.91;100563.75;5030139;28;45203;-71
2022/06/19 09:42:49;;;;;;;;;12.67;10.33;;;;;22.92;47.33;100536.97;5031188;28;45308;-72
2022/06/19 09:45:34;;;;;;;;;11.67;10.33;;;;;22.96;47.61;100556.84;5029100;28;45386;-72
2022/06/19 09:48:02;;;;;;;;;14.33;12.67;;;;;23.15;47.94;100579.06;5025520;28;45053;-71
2022/06/19 09:50:49;;;;;;;;;13.67;11.00;;;;;23.03;47.47;100560.28;5031017;28;45522;-72
2022/06/19 09:53:20;;;;;;;;;12.67;12.33;;;;;23.24;47.71;100581.50;5030538;28;45333;-73
2022/06/19 09:55:51;;;;;;;;;17.33;12.33;;;;;23.26;47.59;100586.91;5031878;28;45269;-72
2022/06/19 09:58:32;;;;;;;;;14.00;11.33;;;;;23.29;47.36;100584.09;5031916;28;45059;-72
2022/06/19 10:01:00;;;;;;;;;12.00;10.67;;;;;22.98;47.61;100520.44;5031945;28;45140;-72
2022/06/19 10:03:25;;;;;;;;;10.33;8.00;;;;;23.26;47.53;100570.56;5030776;28;45830;-73
2022/06/19 10:06:09;;;;;;;;;13.33;10.67;;;;;23.32;47.32;100554.03;5031145;28;45072;-73
2022/06/19 10:08:52;;;;;;;;;11.67;9.67;;;;;23.50;47.39;100553.47;5025552;28;45089;-71
2022/06/19 10:11:31;;;;;;;;;13.67;12.33;;;;;23.72;46.81;100553.69;5030161;28;45437;-71
2022/06/19 10:14:05;;;;;;;;;10.67;9.00;;;;;23.49;46.25;100523.53;5031346;28;45104;-73
2022/06/19 10:16:51;;;;;;;;;11.00;10.00;;;;;23.70;46.73;100541.06;5028111;28;44965;-73
2022/06/19 10:19:22;;;;;;;;;10.67;9.00;;;;;23.89;46.78;100545.03;5026699;28;45233;-71
2022/06/19 10:22:23;;;;;;;;;12.33;11.00;;;;;23.92;46.67;100544.94;5033457;28;45073;-73
2022/06/19 10:24:58;;;;;;;;;15.33;12.33;;;;;24.02;46.47;100548.25;5032822;28;45633;-72
2022/06/19 10:27:38;;;;;;;;;12.67;12.67;;;;;24.08;46.25;100523.47;5009414;28;45364;-72
2022/06/19 10:30:27;;;;;;;;;14.33;13.33;;;;;24.20;46.55;100519.44;5024479;28;45438;-69
2022/06/19 10:33:14;;;;;;;;;15.25;13.75;;;;;24.32;45.74;100515.41;5030127;28;45274;-71
2022/06/19 10:35:49;;;;;;;;;15.67;15.00;;;;;24.40;46.19;100515.13;5027480;28;45417;-72
2022/06/19 10:38:26;;;;;;;;;16.00;14.00;;;;;24.52;45.77;100522.00;5017167;28;45490;-70
2022/06/19 10:40:56;;;;;;;;;18.00;11.33;;;;;24.44;45.71;100486.78;5027749;28;44912;-70
2022/06/19 10:43:54;;;;;;;;;14.67;12.33;;;;;24.62;45.68;100515.31;5023743;28;45423;-72
2022/06/19 10:46:24;;;;;;;;;18.00;18.00;;;;;24.69;45.57;100516.88;5025479;28;45548;-70
2022/06/19 10:49:24;;;;;;;;;14.67;14.67;;;;;24.79;45.44;100522.91;5029116;28;45374;-71
2022/06/19 10:52:08;;;;;;;;;15.33;13.67;;;;;24.81;45.50;100524.66;5024919;28;45457;-71
2022/06/19 10:55:02;;;;;;;;;14.00;12.33;;;;;24.93;45.03;100530.56;5020874;28;45324;-71
2022/06/19 10:57:46;;;;;;;;;14.33;14.33;;;;;25.00;44.80;100526.69;5023657;28;46731;-71
2022/06/19 11:00:12;;;;;;;;;17.00;16.67;;;;;24.88;45.22;100494.34;5020654;28;45877;-70
2022/06/19 11:05:42;;;;;;;;;12.67;12.67;;;;;24.87;45.23;100481.63;5012816;28;45478;-71
2022/06/19 11:08:07;;;;;;;;;13.67;13.67;;;;;25.00;44.80;100513.03;5025142;28;45288;-71
2022/06/19 11:10:41;;;;;;;;;21.33;15.67;;;;;25.02;44.66;100498.34;5029485;28;45334;-71
2022/06/19 11:13:07;;;;;;;;;15.00;15.00;;;;;24.96;45.17;100489.47;5028488;28;45519;-71
2022/06/19 11:15:36;;;;;;;;;16.25;14.75;;;;;24.98;44.97;100498.53;5022166;28;45181;-71
2022/06/19 11:18:19;;;;;;;;;16.25;16.25;;;;;25.13;44.91;100525.28;5021695;28;45638;-72
2022/06/19 11:21:11;;;;;;;;;14.00;14.00;;;;;25.16;45.31;100532.47;5026220;28;44973;-71
2022/06/19 11:23:41;;;;;;;;;21.75;14.75;;;;;25.20;45.23;100537.75;5031544;28;45942;-71
2022/06/19 11:26:08;;;;;;;;;13.67;12.33;;;;;25.20;45.51;100525.94;5027198;28;45441;-70
2022/06/19 11:28:49;;;;;;;;;14.33;13.33;;;;;25.09;45.55;100503.56;5028424;28;45201;-70
2022/06/19 11:31:36;;;;;;;;;14.00;11.67;;;;;25.26;45.02;100509.31;5026713;28;45122;-71
2022/06/19 11:37:22;;;;;;;;;12.67;12.67;;;;;25.43;44.69;100508.69;5020387;28;45359;-71
2022/06/19 11:39:51;;;;;;;;;14.33;13.33;;;;;25.25;44.83;100482.03;5030839;28;45105;-70
2022/06/19 11:42:36;;;;;;;;;14.33;12.00;;;;;25.42;44.54;100526.03;5025903;28;44957;-71